tititudorancea.com
Station Historical Data
Daily Summary for January 11, 2019 Units:  Both    English   Metric
« Previous Day
Next Day »
Daily Weekly Monthly Yearly Custom
  High: Low: Average:
Temperature: TemperatureF °F /  -17.8 °C 46.9 °F /  8.3 °C 70.4 °F /  21.3 °C
Dew Point: DewpointF °F /  -17.8 °C 33.0 °F /  0.6 °C 42.9 °F /  6.1 °C
Humidity: Humidity % 14 % 47 %
Wind Speed: WindSpeedMPH mph /  0 km/h - 5.5 mph /  8.9 km/h
Wind Gust: WindSpeedGustMPH mph /  0 km/h - -
Wind:- - WSW
Pressure: PressureIn in /  0 hPa 29.79 in /  1008.7 hPa -
Precipitation: 0.00 in /  0 mm    
Historical Graphs
 
 
Ararat weather Find more about Weather in Ararat, AU


 



 


Tabular Data for January 11, 2019
Time Temperature Dew Point Pressure Wind Wind Speed Wind Gust Humidity Rainfall Rate (Hourly)
TemperatureF °F /  -17.8 °C DewpointF °F /  -17.8 °C PressureIn in /  0 hPa Calm     Humidity % HourlyPrecipIn in /  0 mm
00:04 58.6 °F /  14.8 °C 46.5 °F /  8.1 °C 30.00 in /  1015.8 hPa North 9.2 mph /  14.8 km/h 5.1 mph /  8.2 km/h 64 % 0.00 in /  0 mm
00:09 58.6 °F /  14.8 °C 46.9 °F /  8.3 °C 30.00 in /  1015.8 hPa South 6.9 mph /  11.1 km/h 5.7 mph /  9.2 km/h 65 % 0.00 in /  0 mm
00:14 58.5 °F /  14.7 °C 46.8 °F /  8.2 °C 30.00 in /  1015.8 hPa South 5.8 mph /  9.3 km/h 3.0 mph /  4.8 km/h 65 % 0.00 in /  0 mm
00:19 58.5 °F /  14.7 °C 46.8 °F /  8.2 °C 30.00 in /  1015.8 hPa South 4.6 mph /  7.4 km/h 2.4 mph /  3.9 km/h 65 % 0.00 in /  0 mm
00:24 58.5 °F /  14.7 °C 46.8 °F /  8.2 °C 30.00 in /  1015.8 hPa South 8.1 mph /  13 km/h 5.0 mph /  8 km/h 65 % 0.00 in /  0 mm
00:29 58.4 °F /  14.7 °C 47.1 °F /  8.4 °C 30.00 in /  1015.8 hPa South 5.8 mph /  9.3 km/h 5.4 mph /  8.7 km/h 66 % 0.00 in /  0 mm
00:34 58.4 °F /  14.7 °C 47.1 °F /  8.4 °C 30.00 in /  1015.8 hPa South 3.5 mph /  5.6 km/h 3.2 mph /  5.1 km/h 66 % 0.00 in /  0 mm
00:39 58.3 °F /  14.6 °C 47.0 °F /  8.3 °C 30.00 in /  1015.8 hPa South 5.8 mph /  9.3 km/h 5.5 mph /  8.9 km/h 66 % 0.00 in /  0 mm
00:44 58.3 °F /  14.6 °C 47.0 °F /  8.3 °C 30.00 in /  1015.8 hPa South 9.0 mph /  14.5 km/h 2.8 mph /  4.5 km/h 66 % 0.00 in /  0 mm
00:49 58.2 °F /  14.6 °C 47.3 °F /  8.5 °C 30.00 in /  1015.8 hPa South 10.4 mph /  16.7 km/h 4.2 mph /  6.8 km/h 67 % 0.00 in /  0 mm
00:54 58.2 °F /  14.6 °C 47.7 °F /  8.7 °C 29.99 in /  1015.5 hPa SSE 11.5 mph /  18.5 km/h 7.2 mph /  11.6 km/h 68 % 0.00 in /  0 mm
00:59 58.1 °F /  14.5 °C 48.0 °F /  8.9 °C 29.99 in /  1015.5 hPa SSE 11.5 mph /  18.5 km/h 7.3 mph /  11.7 km/h 69 % 0.00 in /  0 mm
01:04 58.0 °F /  14.4 °C 47.9 °F /  8.8 °C 29.99 in /  1015.5 hPa South 11.5 mph /  18.5 km/h 7.8 mph /  12.6 km/h 69 % 0.00 in /  0 mm
01:09 57.9 °F /  14.4 °C 48.2 °F /  9 °C 29.99 in /  1015.5 hPa North 11.5 mph /  18.5 km/h 8.1 mph /  13 km/h 70 % 0.00 in /  0 mm
01:14 57.7 °F /  14.3 °C 48.0 °F /  8.9 °C 29.99 in /  1015.5 hPa SSE 11.5 mph /  18.5 km/h 7.3 mph /  11.7 km/h 70 % 0.00 in /  0 mm
01:19 57.6 °F /  14.2 °C 48.3 °F /  9.1 °C 29.99 in /  1015.5 hPa SSE 10.4 mph /  16.7 km/h 6.3 mph /  10.1 km/h 71 % 0.00 in /  0 mm
01:24 57.4 °F /  14.1 °C 48.1 °F /  8.9 °C 29.99 in /  1015.5 hPa SSE 12.0 mph /  19.3 km/h 6.1 mph /  9.8 km/h 71 % 0.00 in /  0 mm
01:29 57.2 °F /  14 °C 48.3 °F /  9.1 °C 29.98 in /  1015.1 hPa SSE 11.5 mph /  18.5 km/h 6.9 mph /  11.1 km/h 72 % 0.00 in /  0 mm
01:34 57.0 °F /  13.9 °C 48.1 °F /  8.9 °C 29.98 in /  1015.1 hPa South 12.7 mph /  20.4 km/h 5.1 mph /  8.2 km/h 72 % 0.00 in /  0 mm
01:39 56.8 °F /  13.8 °C 48.2 °F /  9 °C 29.98 in /  1015.1 hPa South 6.9 mph /  11.1 km/h 3.4 mph /  5.5 km/h 73 % 0.00 in /  0 mm
01:44 56.7 °F /  13.7 °C 48.1 °F /  8.9 °C 29.98 in /  1015.1 hPa North 9.2 mph /  14.8 km/h 4.6 mph /  7.4 km/h 73 % 0.00 in /  0 mm
01:49 56.6 °F /  13.7 °C 48.4 °F /  9.1 °C 29.98 in /  1015.1 hPa South 6.9 mph /  11.1 km/h 3.3 mph /  5.3 km/h 74 % 0.00 in /  0 mm
01:54 56.5 °F /  13.6 °C 48.3 °F /  9.1 °C 29.98 in /  1015.1 hPa South 6.9 mph /  11.1 km/h 1.6 mph /  2.6 km/h 74 % 0.00 in /  0 mm
01:59 56.3 °F /  13.5 °C 48.1 °F /  8.9 °C 29.97 in /  1014.8 hPa South 6.9 mph /  11.1 km/h 5.1 mph /  8.2 km/h 74 % 0.00 in /  0 mm
02:04 56.2 °F /  13.4 °C 48.4 °F /  9.1 °C 29.97 in /  1014.8 hPa South 10.4 mph /  16.7 km/h 4.5 mph /  7.2 km/h 75 % 0.00 in /  0 mm
02:09 56.0 °F /  13.3 °C 48.5 °F /  9.2 °C 29.97 in /  1014.8 hPa North 6.0 mph /  9.7 km/h 3.4 mph /  5.5 km/h 76 % 0.00 in /  0 mm
02:14 55.8 °F /  13.2 °C 48.7 °F /  9.3 °C 29.97 in /  1014.8 hPa South 6.9 mph /  11.1 km/h 5.6 mph /  9 km/h 77 % 0.00 in /  0 mm
02:19 55.6 °F /  13.1 °C 48.5 °F /  9.2 °C 29.96 in /  1014.4 hPa South 8.1 mph /  13 km/h 5.6 mph /  9 km/h 77 % 0.00 in /  0 mm
02:24 55.4 °F /  13 °C 48.7 °F /  9.3 °C 29.97 in /  1014.8 hPa South 8.1 mph /  13 km/h 6.2 mph /  10 km/h 78 % 0.00 in /  0 mm
02:29 55.3 °F /  12.9 °C 48.6 °F /  9.2 °C 29.96 in /  1014.4 hPa North 6.9 mph /  11.1 km/h 4.0 mph /  6.4 km/h 78 % 0.00 in /  0 mm
02:34 55.1 °F /  12.8 °C 48.7 °F /  9.3 °C 29.96 in /  1014.4 hPa South 7.0 mph /  11.3 km/h 4.5 mph /  7.2 km/h 79 % 0.00 in /  0 mm
02:39 54.9 °F /  12.7 °C 48.5 °F /  9.2 °C 29.96 in /  1014.4 hPa South 6.9 mph /  11.1 km/h 4.7 mph /  7.6 km/h 79 % 0.00 in /  0 mm
02:44 54.8 °F /  12.7 °C 48.4 °F /  9.1 °C 29.96 in /  1014.4 hPa South 4.6 mph /  7.4 km/h 5.0 mph /  8 km/h 79 % 0.00 in /  0 mm
02:49 54.6 °F /  12.6 °C 48.6 °F /  9.2 °C 29.96 in /  1014.4 hPa South 6.9 mph /  11.1 km/h 4.8 mph /  7.7 km/h 80 % 0.00 in /  0 mm
02:54 54.5 °F /  12.5 °C 48.5 °F /  9.2 °C 29.96 in /  1014.4 hPa South 6.9 mph /  11.1 km/h 5.1 mph /  8.2 km/h 80 % 0.00 in /  0 mm
02:59 54.3 °F /  12.4 °C 48.3 °F /  9.1 °C 29.96 in /  1014.4 hPa South 5.8 mph /  9.3 km/h 4.2 mph /  6.8 km/h 80 % 0.00 in /  0 mm
03:04 54.1 °F /  12.3 °C 48.4 °F /  9.1 °C 29.96 in /  1014.4 hPa North 6.9 mph /  11.1 km/h 4.4 mph /  7.1 km/h 81 % 0.00 in /  0 mm
03:09 54.0 °F /  12.2 °C 48.3 °F /  9.1 °C 29.96 in /  1014.4 hPa South 4.6 mph /  7.4 km/h 4.4 mph /  7.1 km/h 81 % 0.00 in /  0 mm
03:14 53.9 °F /  12.2 °C 48.2 °F /  9 °C 29.95 in /  1014.1 hPa South 5.0 mph /  8 km/h 3.3 mph /  5.3 km/h 81 % 0.00 in /  0 mm
03:19 53.7 °F /  12.1 °C 48.3 °F /  9.1 °C 29.95 in /  1014.1 hPa South 5.8 mph /  9.3 km/h 4.7 mph /  7.6 km/h 82 % 0.00 in /  0 mm
03:24 53.6 °F /  12 °C 48.2 °F /  9 °C 29.95 in /  1014.1 hPa South 5.8 mph /  9.3 km/h 4.0 mph /  6.4 km/h 82 % 0.00 in /  0 mm
03:29 53.5 °F /  11.9 °C 48.1 °F /  8.9 °C 29.95 in /  1014.1 hPa North 5.8 mph /  9.3 km/h 4.2 mph /  6.8 km/h 82 % 0.00 in /  0 mm
03:34 53.4 °F /  11.9 °C 48.4 °F /  9.1 °C 29.95 in /  1014.1 hPa South 4.6 mph /  7.4 km/h 3.1 mph /  5 km/h 83 % 0.00 in /  0 mm
03:39 53.3 °F /  11.8 °C 48.3 °F /  9.1 °C 29.95 in /  1014.1 hPa North 4.6 mph /  7.4 km/h 2.2 mph /  3.5 km/h 83 % 0.00 in /  0 mm
03:44 53.3 °F /  11.8 °C 48.3 °F /  9.1 °C 29.95 in /  1014.1 hPa North 3.5 mph /  5.6 km/h 1.3 mph /  2.1 km/h 83 % 0.00 in /  0 mm
03:49 53.2 °F /  11.8 °C 48.2 °F /  9 °C 29.95 in /  1014.1 hPa North 4.6 mph /  7.4 km/h 3.1 mph /  5 km/h 83 % 0.00 in /  0 mm
03:54 53.2 °F /  11.8 °C 48.2 °F /  9 °C 29.95 in /  1014.1 hPa South 5.0 mph /  8 km/h 4.2 mph /  6.8 km/h 83 % 0.00 in /  0 mm
03:59 53.1 °F /  11.7 °C 48.1 °F /  8.9 °C 29.95 in /  1014.1 hPa South 4.0 mph /  6.4 km/h 3.3 mph /  5.3 km/h 83 % 0.00 in /  0 mm
04:04 53.0 °F /  11.7 °C 48.3 °F /  9.1 °C 29.95 in /  1014.1 hPa South 3.5 mph /  5.6 km/h 1.4 mph /  2.3 km/h 84 % 0.00 in /  0 mm
04:09 53.0 °F /  11.7 °C 48.3 °F /  9.1 °C 29.95 in /  1014.1 hPa South 2.3 mph /  3.7 km/h 1.5 mph /  2.4 km/h 84 % 0.00 in /  0 mm
04:14 52.8 °F /  11.6 °C 48.1 °F /  8.9 °C 29.95 in /  1014.1 hPa South 4.0 mph /  6.4 km/h 2.4 mph /  3.9 km/h 84 % 0.00 in /  0 mm
04:19 52.6 °F /  11.4 °C 47.6 °F /  8.7 °C 29.95 in /  1014.1 hPa South 4.6 mph /  7.4 km/h 2.4 mph /  3.9 km/h 83 % 0.00 in /  0 mm
04:24 52.4 °F /  11.3 °C 47.7 °F /  8.7 °C 29.95 in /  1014.1 hPa South 3.5 mph /  5.6 km/h 2.2 mph /  3.5 km/h 84 % 0.00 in /  0 mm
04:29 52.2 °F /  11.2 °C 47.5 °F /  8.6 °C 29.95 in /  1014.1 hPa South 3.5 mph /  5.6 km/h 1.2 mph /  1.9 km/h 84 % 0.00 in /  0 mm
04:34 52.1 °F /  11.2 °C 47.4 °F /  8.6 °C 29.95 in /  1014.1 hPa North 1.2 mph /  1.9 km/h   84 % 0.00 in /  0 mm
04:39 51.8 °F /  11 °C 47.1 °F /  8.4 °C 29.94 in /  1013.8 hPa South 2.3 mph /  3.7 km/h 1.0 mph /  1.6 km/h 84 % 0.00 in /  0 mm
04:44 51.6 °F /  10.9 °C 46.9 °F /  8.3 °C 29.94 in /  1013.8 hPa Calm     84 % 0.00 in /  0 mm
04:49 51.3 °F /  10.7 °C 46.6 °F /  8.1 °C 29.94 in /  1013.8 hPa South 2.3 mph /  3.7 km/h   84 % 0.00 in /  0 mm
04:54 51.0 °F /  10.6 °C 46.3 °F /  7.9 °C 29.94 in /  1013.8 hPa Calm     84 % 0.00 in /  0 mm
04:59 50.7 °F /  10.4 °C 46.4 °F /  8 °C 29.95 in /  1014.1 hPa Calm     85 % 0.00 in /  0 mm
05:04 50.4 °F /  10.2 °C 46.1 °F /  7.8 °C 29.94 in /  1013.8 hPa Calm     85 % 0.00 in /  0 mm
05:09 50.2 °F /  10.1 °C 45.9 °F /  7.7 °C 29.94 in /  1013.8 hPa Calm     85 % 0.00 in /  0 mm
05:14 50.0 °F /  10 °C 45.7 °F /  7.6 °C 29.94 in /  1013.8 hPa Calm     85 % 0.00 in /  0 mm
05:19 49.7 °F /  9.8 °C 45.4 °F /  7.4 °C 29.94 in /  1013.8 hPa Calm     85 % 0.00 in /  0 mm
05:24 49.4 °F /  9.7 °C 45.4 °F /  7.4 °C 29.95 in /  1014.1 hPa Calm     86 % 0.00 in /  0 mm
05:29 49.1 °F /  9.5 °C 45.1 °F /  7.3 °C 29.95 in /  1014.1 hPa Calm     86 % 0.00 in /  0 mm
05:34 48.9 °F /  9.4 °C 44.9 °F /  7.2 °C 29.95 in /  1014.1 hPa Calm     86 % 0.00 in /  0 mm
05:39 48.6 °F /  9.2 °C 44.6 °F /  7 °C 29.95 in /  1014.1 hPa Calm     86 % 0.00 in /  0 mm
05:44 48.5 °F /  9.2 °C 44.8 °F /  7.1 °C 29.95 in /  1014.1 hPa North 1.2 mph /  1.9 km/h   87 % 0.00 in /  0 mm
05:49 48.3 °F /  9.1 °C 44.6 °F /  7 °C 29.95 in /  1014.1 hPa Calm     87 % 0.00 in /  0 mm
05:54 48.1 °F /  8.9 °C 44.4 °F /  6.9 °C 29.95 in /  1014.1 hPa Calm     87 % 0.00 in /  0 mm
05:59 47.8 °F /  8.8 °C 44.1 °F /  6.7 °C 29.95 in /  1014.1 hPa Calm     87 % 0.00 in /  0 mm
06:04 47.6 °F /  8.7 °C 43.9 °F /  6.6 °C 29.95 in /  1014.1 hPa Calm     87 % 0.00 in /  0 mm
06:09 47.6 °F /  8.7 °C 44.2 °F /  6.8 °C 29.95 in /  1014.1 hPa Calm     88 % 0.00 in /  0 mm
06:14 47.6 °F /  8.7 °C 44.2 °F /  6.8 °C 29.95 in /  1014.1 hPa Calm     88 % 0.00 in /  0 mm
06:19 47.6 °F /  8.7 °C 44.2 °F /  6.8 °C 29.95 in /  1014.1 hPa Calm     88 % 0.00 in /  0 mm
06:24 47.3 °F /  8.5 °C 43.9 °F /  6.6 °C 29.95 in /  1014.1 hPa Calm     88 % 0.00 in /  0 mm
06:29 47.1 °F /  8.4 °C 43.7 °F /  6.5 °C 29.95 in /  1014.1 hPa Calm     88 % 0.00 in /  0 mm
06:34 46.9 °F /  8.3 °C 43.5 °F /  6.4 °C 29.95 in /  1014.1 hPa Calm     88 % 0.00 in /  0 mm
06:39 47.0 °F /  8.3 °C 43.9 °F /  6.6 °C 29.95 in /  1014.1 hPa Calm     89 % 0.00 in /  0 mm
06:44 47.2 °F /  8.4 °C 44.4 °F /  6.9 °C 29.94 in /  1013.8 hPa Calm     90 % 0.00 in /  0 mm
06:49 47.6 °F /  8.7 °C 44.8 °F /  7.1 °C 29.94 in /  1013.8 hPa Calm     90 % 0.00 in /  0 mm
06:54 48.2 °F /  9 °C 45.4 °F /  7.4 °C 29.94 in /  1013.8 hPa Calm     90 % 0.00 in /  0 mm
06:59 48.7 °F /  9.3 °C 45.9 °F /  7.7 °C 29.95 in /  1014.1 hPa Calm     90 % 0.00 in /  0 mm
07:04 49.3 °F /  9.6 °C 46.5 °F /  8.1 °C 29.95 in /  1014.1 hPa Calm     90 % 0.00 in /  0 mm
07:09 50.0 °F /  10 °C 47.2 °F /  8.4 °C 29.95 in /  1014.1 hPa Calm     90 % 0.00 in /  0 mm
07:14 50.8 °F /  10.4 °C 48.0 °F /  8.9 °C 29.95 in /  1014.1 hPa Calm     90 % 0.00 in /  0 mm
07:19 51.5 °F /  10.8 °C 48.4 °F /  9.1 °C 29.95 in /  1014.1 hPa Calm     89 % 0.00 in /  0 mm
07:24 52.2 °F /  11.2 °C 48.8 °F /  9.3 °C 29.95 in /  1014.1 hPa Calm     88 % 0.00 in /  0 mm
07:29 53.0 °F /  11.7 °C 49.2 °F /  9.6 °C 29.95 in /  1014.1 hPa Calm     87 % 0.00 in /  0 mm
07:34 53.7 °F /  12.1 °C 49.6 °F /  9.8 °C 29.95 in /  1014.1 hPa Calm     86 % 0.00 in /  0 mm
07:39 54.3 °F /  12.4 °C 49.9 °F /  9.9 °C 29.95 in /  1014.1 hPa Calm     85 % 0.00 in /  0 mm
07:44 55.1 °F /  12.8 °C 50.0 °F /  10 °C 29.95 in /  1014.1 hPa Calm     83 % 0.00 in /  0 mm
07:49 55.8 °F /  13.2 °C 50.4 °F /  10.2 °C 29.95 in /  1014.1 hPa Calm     82 % 0.00 in /  0 mm
07:54 56.4 °F /  13.6 °C 50.3 °F /  10.2 °C 29.95 in /  1014.1 hPa Calm     80 % 0.00 in /  0 mm
07:59 57.0 °F /  13.9 °C 50.5 °F /  10.3 °C 29.95 in /  1014.1 hPa Calm     79 % 0.00 in /  0 mm
08:04 57.9 °F /  14.4 °C 50.7 °F /  10.4 °C 29.95 in /  1014.1 hPa Calm     77 % 0.00 in /  0 mm
08:09 58.8 °F /  14.9 °C 51.2 °F /  10.7 °C 29.95 in /  1014.1 hPa Calm     76 % 0.00 in /  0 mm
08:14 59.8 °F /  15.4 °C 51.5 °F /  10.8 °C 29.96 in /  1014.4 hPa Calm     74 % 0.00 in /  0 mm
08:19 60.1 °F /  15.6 °C 51.0 °F /  10.6 °C 29.96 in /  1014.4 hPa Calm     72 % 0.00 in /  0 mm
08:24 60.6 °F /  15.9 °C 50.8 °F /  10.4 °C 29.96 in /  1014.4 hPa Calm     70 % 0.00 in /  0 mm
08:29 61.4 °F /  16.3 °C 51.1 °F /  10.6 °C 29.95 in /  1014.1 hPa Calm     69 % 0.00 in /  0 mm
08:34 62.0 °F /  16.7 °C 50.9 °F /  10.5 °C 29.95 in /  1014.1 hPa Calm   0.1 mph /  0.2 km/h 67 % 0.00 in /  0 mm
08:39 62.8 °F /  17.1 °C 51.3 °F /  10.7 °C 29.95 in /  1014.1 hPa South 1.2 mph /  1.9 km/h   66 % 0.00 in /  0 mm
08:44 63.1 °F /  17.3 °C 50.3 °F /  10.2 °C 29.95 in /  1014.1 hPa Calm     63 % 0.00 in /  0 mm
08:49 63.7 °F /  17.6 °C 51.3 °F /  10.7 °C 29.95 in /  1014.1 hPa South 1.0 mph /  1.6 km/h   64 % 0.00 in /  0 mm
08:54 64.9 °F /  18.3 °C 51.6 °F /  10.9 °C 29.95 in /  1014.1 hPa Calm     62 % 0.00 in /  0 mm
08:59 65.7 °F /  18.7 °C 50.0 °F /  10 °C 29.95 in /  1014.1 hPa Calm     57 % 0.00 in /  0 mm
09:04 66.1 °F /  18.9 °C 49.9 °F /  9.9 °C 29.95 in /  1014.1 hPa South 2.3 mph /  3.7 km/h   56 % 0.00 in /  0 mm
09:09 66.9 °F /  19.4 °C 49.2 °F /  9.6 °C 29.95 in /  1014.1 hPa South 3.5 mph /  5.6 km/h 2.1 mph /  3.4 km/h 53 % 0.00 in /  0 mm
09:14 67.6 °F /  19.8 °C 48.8 °F /  9.3 °C 29.95 in /  1014.1 hPa South 4.6 mph /  7.4 km/h 3.3 mph /  5.3 km/h 51 % 0.00 in /  0 mm
09:19 68.4 °F /  20.2 °C 48.5 °F /  9.2 °C 29.95 in /  1014.1 hPa South 4.0 mph /  6.4 km/h 3.5 mph /  5.6 km/h 49 % 0.00 in /  0 mm
09:24 69.4 °F /  20.8 °C 47.1 °F /  8.4 °C 29.95 in /  1014.1 hPa South 8.1 mph /  13 km/h 5.0 mph /  8 km/h 45 % 0.00 in /  0 mm
09:29 70.3 °F /  21.3 °C 46.1 °F /  7.8 °C 29.95 in /  1014.1 hPa South 5.8 mph /  9.3 km/h 4.8 mph /  7.7 km/h 42 % 0.00 in /  0 mm
09:34 71.5 °F /  21.9 °C 47.2 °F /  8.4 °C 29.95 in /  1014.1 hPa South 4.0 mph /  6.4 km/h 3.5 mph /  5.6 km/h 42 % 0.00 in /  0 mm
09:39 72.4 °F /  22.4 °C 46.0 °F /  7.8 °C 29.95 in /  1014.1 hPa South 5.8 mph /  9.3 km/h 4.4 mph /  7.1 km/h 39 % 0.00 in /  0 mm
09:44 73.1 °F /  22.8 °C 44.5 °F /  6.9 °C 29.94 in /  1013.8 hPa South 5.8 mph /  9.3 km/h 5.1 mph /  8.2 km/h 36 % 0.00 in /  0 mm
09:49 73.7 °F /  23.2 °C 43.6 °F /  6.4 °C 29.94 in /  1013.8 hPa West 12.0 mph /  19.3 km/h 8.7 mph /  14 km/h 34 % 0.00 in /  0 mm
09:54 74.4 °F /  23.6 °C 43.4 °F /  6.3 °C 29.94 in /  1013.8 hPa North 8.1 mph /  13 km/h 4.7 mph /  7.6 km/h 33 % 0.00 in /  0 mm
09:59 75.0 °F /  23.9 °C 43.1 °F /  6.2 °C 29.94 in /  1013.8 hPa North 10.4 mph /  16.7 km/h 6.9 mph /  11.1 km/h 32 % 0.00 in /  0 mm
10:04 75.1 °F /  23.9 °C 41.5 °F /  5.3 °C 29.94 in /  1013.8 hPa North 11.5 mph /  18.5 km/h 6.7 mph /  10.8 km/h 30 % 0.00 in /  0 mm
10:09 75.5 °F /  24.2 °C 41.9 °F /  5.5 °C 29.94 in /  1013.8 hPa WNW 6.9 mph /  11.1 km/h 5.4 mph /  8.7 km/h 30 % 0.00 in /  0 mm
10:14 75.9 °F /  24.4 °C 40.4 °F /  4.7 °C 29.94 in /  1013.8 hPa NW 8.1 mph /  13 km/h 4.9 mph /  7.9 km/h 28 % 0.00 in /  0 mm
10:19 76.3 °F /  24.6 °C 41.7 °F /  5.4 °C 29.93 in /  1013.4 hPa NW 5.0 mph /  8 km/h 3.6 mph /  5.8 km/h 29 % 0.00 in /  0 mm
10:24 76.7 °F /  24.8 °C 42.9 °F /  6.1 °C 29.93 in /  1013.4 hPa NW 6.0 mph /  9.7 km/h 3.1 mph /  5 km/h 30 % 0.00 in /  0 mm
10:29 77.1 °F /  25.1 °C 40.5 °F /  4.7 °C 29.93 in /  1013.4 hPa North 9.2 mph /  14.8 km/h 4.6 mph /  7.4 km/h 27 % 0.00 in /  0 mm
10:34 77.6 °F /  25.3 °C 41.9 °F /  5.5 °C 29.93 in /  1013.4 hPa NW 5.8 mph /  9.3 km/h 5.0 mph /  8 km/h 28 % 0.00 in /  0 mm
10:39 78.3 °F /  25.7 °C 40.6 °F /  4.8 °C 29.93 in /  1013.4 hPa North 11.0 mph /  17.7 km/h 6.5 mph /  10.5 km/h 26 % 0.00 in /  0 mm
10:44 78.1 °F /  25.6 °C 40.4 °F /  4.7 °C 29.93 in /  1013.4 hPa North 8.1 mph /  13 km/h 4.1 mph /  6.6 km/h 26 % 0.00 in /  0 mm
10:49 77.9 °F /  25.5 °C 40.2 °F /  4.6 °C 29.93 in /  1013.4 hPa NW 8.1 mph /  13 km/h 3.5 mph /  5.6 km/h 26 % 0.00 in /  0 mm
10:54 78.3 °F /  25.7 °C 39.6 °F /  4.2 °C 29.93 in /  1013.4 hPa North 5.8 mph /  9.3 km/h 3.3 mph /  5.3 km/h 25 % 0.00 in /  0 mm
10:59 78.9 °F /  26.1 °C 40.1 °F /  4.5 °C 29.93 in /  1013.4 hPa NW 9.2 mph /  14.8 km/h 5.5 mph /  8.9 km/h 25 % 0.00 in /  0 mm
11:04 78.8 °F /  26 °C 40.0 °F /  4.4 °C 29.93 in /  1013.4 hPa NNW 9.2 mph /  14.8 km/h 3.5 mph /  5.6 km/h 25 % 0.00 in /  0 mm
11:09 79.3 °F /  26.3 °C 40.4 °F /  4.7 °C 29.93 in /  1013.4 hPa North 11.5 mph /  18.5 km/h 9.9 mph /  15.9 km/h 25 % 0.00 in /  0 mm
11:14 79.7 °F /  26.5 °C 39.7 °F /  4.3 °C 29.93 in /  1013.4 hPa North 8.1 mph /  13 km/h 5.9 mph /  9.5 km/h 24 % 0.00 in /  0 mm
11:19 79.7 °F /  26.5 °C 39.7 °F /  4.3 °C 29.93 in /  1013.4 hPa North 8.1 mph /  13 km/h 4.5 mph /  7.2 km/h 24 % 0.00 in /  0 mm
11:24 80.0 °F /  26.7 °C 38.9 °F /  3.8 °C 29.93 in /  1013.4 hPa North 11.5 mph /  18.5 km/h 3.8 mph /  6.1 km/h 23 % 0.00 in /  0 mm
11:29 79.9 °F /  26.6 °C 38.8 °F /  3.8 °C 29.93 in /  1013.4 hPa North 8.1 mph /  13 km/h 6.3 mph /  10.1 km/h 23 % 0.00 in /  0 mm
11:34 80.3 °F /  26.8 °C 38.0 °F /  3.3 °C 29.93 in /  1013.4 hPa North 11.5 mph /  18.5 km/h 7.8 mph /  12.6 km/h 22 % 0.00 in /  0 mm
11:39 80.7 °F /  27.1 °C 38.3 °F /  3.5 °C 29.92 in /  1013.1 hPa North 5.0 mph /  8 km/h 6.0 mph /  9.7 km/h 22 % 0.00 in /  0 mm
11:44 80.8 °F /  27.1 °C 37.2 °F /  2.9 °C 29.92 in /  1013.1 hPa NNW 6.0 mph /  9.7 km/h 5.8 mph /  9.3 km/h 21 % 0.00 in /  0 mm
11:49 81.3 °F /  27.4 °C 33.7 °F /  0.9 °C 29.92 in /  1013.1 hPa North 5.8 mph /  9.3 km/h 4.6 mph /  7.4 km/h 18 % 0.00 in /  0 mm
11:54 82.0 °F /  27.8 °C 35.7 °F /  2.1 °C 29.92 in /  1013.1 hPa North 4.6 mph /  7.4 km/h 5.0 mph /  8 km/h 19 % 0.00 in /  0 mm
11:59 82.1 °F /  27.8 °C 34.4 °F /  1.3 °C 29.92 in /  1013.1 hPa NNW 8.0 mph /  12.9 km/h 7.4 mph /  11.9 km/h 18 % 0.00 in /  0 mm
12:04 82.0 °F /  27.8 °C 35.7 °F /  2.1 °C 29.92 in /  1013.1 hPa NW 6.9 mph /  11.1 km/h 5.8 mph /  9.3 km/h 19 % 0.00 in /  0 mm
12:09 81.9 °F /  27.7 °C 35.6 °F /  2 °C 29.91 in /  1012.8 hPa NW 8.1 mph /  13 km/h 6.2 mph /  10 km/h 19 % 0.00 in /  0 mm
12:14 82.3 °F /  27.9 °C 37.2 °F /  2.9 °C 29.91 in /  1012.8 hPa NW 9.2 mph /  14.8 km/h 6.1 mph /  9.8 km/h 20 % 0.00 in /  0 mm
12:19 82.9 °F /  28.3 °C 33.6 °F /  0.9 °C 29.91 in /  1012.8 hPa North 6.0 mph /  9.7 km/h 5.2 mph /  8.4 km/h 17 % 0.00 in /  0 mm
12:24 83.3 °F /  28.5 °C 35.4 °F /  1.9 °C 29.91 in /  1012.8 hPa North 10.0 mph /  16.1 km/h 5.9 mph /  9.5 km/h 18 % 0.00 in /  0 mm
12:29 83.5 °F /  28.6 °C 36.9 °F /  2.7 °C 29.91 in /  1012.8 hPa North 9.2 mph /  14.8 km/h 5.3 mph /  8.5 km/h 19 % 0.00 in /  0 mm
12:34 83.0 °F /  28.3 °C 36.5 °F /  2.5 °C 29.91 in /  1012.8 hPa NNW 10.4 mph /  16.7 km/h 6.2 mph /  10 km/h 19 % 0.00 in /  0 mm
12:39 82.7 °F /  28.2 °C 36.2 °F /  2.3 °C 29.90 in /  1012.4 hPa NNW 5.8 mph /  9.3 km/h 1.2 mph /  1.9 km/h 19 % 0.00 in /  0 mm
12:44 84.1 °F /  28.9 °C 36.0 °F /  2.2 °C 29.90 in /  1012.4 hPa NNE 12.0 mph /  19.3 km/h 9.3 mph /  15 km/h 18 % 0.00 in /  0 mm
12:49 84.2 °F /  29 °C 36.1 °F /  2.3 °C 29.90 in /  1012.4 hPa NNE 11.5 mph /  18.5 km/h 5.1 mph /  8.2 km/h 18 % 0.00 in /  0 mm
12:54 84.7 °F /  29.3 °C 36.5 °F /  2.5 °C 29.90 in /  1012.4 hPa NNE 11.5 mph /  18.5 km/h 4.7 mph /  7.6 km/h 18 % 0.00 in /  0 mm
12:59 84.8 °F /  29.3 °C 36.6 °F /  2.6 °C 29.90 in /  1012.4 hPa North 4.6 mph /  7.4 km/h 1.8 mph /  2.9 km/h 18 % 0.00 in /  0 mm
13:04 85.3 °F /  29.6 °C 35.5 °F /  1.9 °C 29.90 in /  1012.4 hPa NNW 11.5 mph /  18.5 km/h 7.7 mph /  12.4 km/h 17 % 0.00 in /  0 mm
13:09 84.8 °F /  29.3 °C 33.6 °F /  0.9 °C 29.90 in /  1012.4 hPa North 10.4 mph /  16.7 km/h 9.0 mph /  14.5 km/h 16 % 0.00 in /  0 mm
13:14 85.1 °F /  29.5 °C 35.4 °F /  1.9 °C 29.90 in /  1012.4 hPa North 11.5 mph /  18.5 km/h 7.4 mph /  11.9 km/h 17 % 0.00 in /  0 mm
13:19 85.5 °F /  29.7 °C 35.7 °F /  2.1 °C 29.89 in /  1012.1 hPa NNW 11.5 mph /  18.5 km/h 5.0 mph /  8 km/h 17 % 0.00 in /  0 mm
13:24 85.5 °F /  29.7 °C 35.7 °F /  2.1 °C 29.89 in /  1012.1 hPa NNW 12.0 mph /  19.3 km/h 7.7 mph /  12.4 km/h 17 % 0.00 in /  0 mm
13:29 85.6 °F /  29.8 °C 34.2 °F /  1.2 °C 29.89 in /  1012.1 hPa North 12.7 mph /  20.4 km/h 6.8 mph /  10.9 km/h 16 % 0.00 in /  0 mm
13:34 85.6 °F /  29.8 °C 35.8 °F /  2.1 °C 29.89 in /  1012.1 hPa North 6.9 mph /  11.1 km/h 1.7 mph /  2.7 km/h 17 % 0.00 in /  0 mm
13:39 86.5 °F /  30.3 °C 35.0 °F /  1.7 °C 29.89 in /  1012.1 hPa NNW 8.1 mph /  13 km/h 5.5 mph /  8.9 km/h 16 % 0.00 in /  0 mm
13:44 86.0 °F /  30 °C 33.0 °F /  0.6 °C 29.88 in /  1011.7 hPa WNW 8.1 mph /  13 km/h 6.8 mph /  10.9 km/h 15 % 0.00 in /  0 mm
13:49 85.7 °F /  29.8 °C 35.9 °F /  2.2 °C 29.88 in /  1011.7 hPa NW 9.2 mph /  14.8 km/h 3.6 mph /  5.8 km/h 17 % 0.00 in /  0 mm
13:54 86.2 °F /  30.1 °C 34.7 °F /  1.5 °C 29.88 in /  1011.7 hPa North 7.0 mph /  11.3 km/h 7.3 mph /  11.7 km/h 16 % 0.00 in /  0 mm
13:59 86.5 °F /  30.3 °C 33.4 °F /  0.8 °C 29.88 in /  1011.7 hPa North 5.8 mph /  9.3 km/h 2.4 mph /  3.9 km/h 15 % 0.00 in /  0 mm
14:04 87.5 °F /  30.8 °C 34.1 °F /  1.2 °C 29.88 in /  1011.7 hPa NW 15.0 mph /  24.1 km/h 9.1 mph /  14.6 km/h 15 % 0.00 in /  0 mm
14:09 86.7 °F /  30.4 °C 35.1 °F /  1.7 °C 29.88 in /  1011.7 hPa NW 10.4 mph /  16.7 km/h 6.5 mph /  10.5 km/h 16 % 0.00 in /  0 mm
14:14 86.9 °F /  30.5 °C 35.3 °F /  1.8 °C 29.87 in /  1011.4 hPa WNW 6.0 mph /  9.7 km/h 7.6 mph /  12.2 km/h 16 % 0.00 in /  0 mm
14:19 86.9 °F /  30.5 °C 35.3 °F /  1.8 °C 29.87 in /  1011.4 hPa NW 11.5 mph /  18.5 km/h 6.8 mph /  10.9 km/h 16 % 0.00 in /  0 mm
14:24 87.1 °F /  30.6 °C 33.8 °F /  1 °C 29.86 in /  1011.1 hPa NW 3.5 mph /  5.6 km/h 3.4 mph /  5.5 km/h 15 % 0.00 in /  0 mm
14:29 87.5 °F /  30.8 °C 34.1 °F /  1.2 °C 29.86 in /  1011.1 hPa WNW 14.0 mph /  22.5 km/h 8.3 mph /  13.4 km/h 15 % 0.00 in /  0 mm
14:34 88.6 °F /  31.4 °C 35.0 °F /  1.7 °C 29.87 in /  1011.4 hPa NW 12.7 mph /  20.4 km/h 7.9 mph /  12.7 km/h 15 % 0.00 in /  0 mm
14:39 88.4 °F /  31.3 °C 33.1 °F /  0.6 °C 29.87 in /  1011.4 hPa North 15.0 mph /  24.1 km/h 9.1 mph /  14.6 km/h 14 % 0.00 in /  0 mm
14:44 88.3 °F /  31.3 °C 34.8 °F /  1.6 °C 29.86 in /  1011.1 hPa West 11.5 mph /  18.5 km/h 5.9 mph /  9.5 km/h 15 % 0.00 in /  0 mm
14:49 88.4 °F /  31.3 °C 34.9 °F /  1.6 °C 29.86 in /  1011.1 hPa West 14.0 mph /  22.5 km/h 9.7 mph /  15.6 km/h 15 % 0.00 in /  0 mm
14:54 88.8 °F /  31.6 °C 35.2 °F /  1.8 °C 29.86 in /  1011.1 hPa NW 13.8 mph /  22.2 km/h 11.7 mph /  18.8 km/h 15 % 0.00 in /  0 mm
14:59 88.4 °F /  31.3 °C 34.9 °F /  1.6 °C 29.86 in /  1011.1 hPa WNW 13.8 mph /  22.2 km/h 12.9 mph /  20.8 km/h 15 % 0.00 in /  0 mm
15:04 88.2 °F /  31.2 °C 34.7 °F /  1.5 °C 29.85 in /  1010.7 hPa NW 8.1 mph /  13 km/h 4.9 mph /  7.9 km/h 15 % 0.00 in /  0 mm
15:09 88.3 °F /  31.3 °C 36.4 °F /  2.4 °C 29.86 in /  1011.1 hPa WNW 13.8 mph /  22.2 km/h 7.5 mph /  12.1 km/h 16 % 0.00 in /  0 mm
15:14 88.2 °F /  31.2 °C 37.9 °F /  3.3 °C 29.85 in /  1010.7 hPa North 14.0 mph /  22.5 km/h 9.8 mph /  15.8 km/h 17 % 0.00 in /  0 mm
15:19 88.7 °F /  31.5 °C 38.3 °F /  3.5 °C 29.85 in /  1010.7 hPa NW 8.1 mph /  13 km/h 4.1 mph /  6.6 km/h 17 % 0.00 in /  0 mm
15:24 89.6 °F /  32 °C 37.5 °F /  3.1 °C 29.85 in /  1010.7 hPa NNW 12.0 mph /  19.3 km/h 8.6 mph /  13.8 km/h 16 % 0.00 in /  0 mm
15:29 89.2 °F /  31.8 °C 37.1 °F /  2.8 °C 29.85 in /  1010.7 hPa North 10.4 mph /  16.7 km/h 7.2 mph /  11.6 km/h 16 % 0.00 in /  0 mm
15:34 88.9 °F /  31.6 °C 36.9 °F /  2.7 °C 29.85 in /  1010.7 hPa North 13.8 mph /  22.2 km/h 8.9 mph /  14.3 km/h 16 % 0.00 in /  0 mm
15:39 88.9 °F /  31.6 °C 36.9 °F /  2.7 °C 29.84 in /  1010.4 hPa WSW 8.1 mph /  13 km/h 7.5 mph /  12.1 km/h 16 % 0.00 in /  0 mm
15:44 89.2 °F /  31.8 °C 37.1 °F /  2.8 °C 29.85 in /  1010.7 hPa NNW 11.5 mph /  18.5 km/h 6.8 mph /  10.9 km/h 16 % 0.00 in /  0 mm
15:49 88.9 °F /  31.6 °C 36.9 °F /  2.7 °C 29.84 in /  1010.4 hPa NNE 10.4 mph /  16.7 km/h 4.8 mph /  7.7 km/h 16 % 0.00 in /  0 mm
15:54 89.4 °F /  31.9 °C 37.3 °F /  2.9 °C 29.84 in /  1010.4 hPa North 11.5 mph /  18.5 km/h 6.9 mph /  11.1 km/h 16 % 0.00 in /  0 mm
15:59 89.6 °F /  32 °C 37.5 °F /  3.1 °C 29.83 in /  1010 hPa NNW 13.0 mph /  20.9 km/h 10.5 mph /  16.9 km/h 16 % 0.00 in /  0 mm
16:04 89.7 °F /  32.1 °C 37.5 °F /  3.1 °C 29.84 in /  1010.4 hPa NW 11.5 mph /  18.5 km/h 5.1 mph /  8.2 km/h 16 % 0.00 in /  0 mm
16:09 90.1 °F /  32.3 °C 37.9 °F /  3.3 °C 29.84 in /  1010.4 hPa North 11.5 mph /  18.5 km/h 3.5 mph /  5.6 km/h 16 % 0.00 in /  0 mm
16:14 90.2 °F /  32.3 °C 37.9 °F /  3.3 °C 29.83 in /  1010 hPa NNE 4.0 mph /  6.4 km/h 5.1 mph /  8.2 km/h 16 % 0.00 in /  0 mm
16:19 90.4 °F /  32.4 °C 38.1 °F /  3.4 °C 29.83 in /  1010 hPa WNW 12.7 mph /  20.4 km/h 6.9 mph /  11.1 km/h 16 % 0.00 in /  0 mm
16:24 90.3 °F /  32.4 °C 36.4 °F /  2.4 °C 29.82 in /  1009.7 hPa West 8.1 mph /  13 km/h 5.3 mph /  8.5 km/h 15 % 0.00 in /  0 mm
16:29 90.7 °F /  32.6 °C 38.3 °F /  3.5 °C 29.82 in /  1009.7 hPa WNW 13.8 mph /  22.2 km/h 11.2 mph /  18 km/h 16 % 0.00 in /  0 mm
16:34 90.3 °F /  32.4 °C 38.0 °F /  3.3 °C 29.82 in /  1009.7 hPa NW 16.1 mph /  25.9 km/h 9.2 mph /  14.8 km/h 16 % 0.00 in /  0 mm
16:39 90.0 °F /  32.2 °C 37.8 °F /  3.2 °C 29.82 in /  1009.7 hPa NW 11.5 mph /  18.5 km/h 10.7 mph /  17.2 km/h 16 % 0.00 in /  0 mm
16:44 90.1 °F /  32.3 °C 37.9 °F /  3.3 °C 29.82 in /  1009.7 hPa NW 11.0 mph /  17.7 km/h 9.0 mph /  14.5 km/h 16 % 0.00 in /  0 mm
16:49 90.1 °F /  32.3 °C 37.9 °F /  3.3 °C 29.81 in /  1009.4 hPa WNW 3.5 mph /  5.6 km/h 1.4 mph /  2.3 km/h 16 % 0.00 in /  0 mm
16:54 90.9 °F /  32.7 °C 38.5 °F /  3.6 °C 29.82 in /  1009.7 hPa West 12.7 mph /  20.4 km/h 12.2 mph /  19.6 km/h 16 % 0.00 in /  0 mm
16:59 90.7 °F /  32.6 °C 38.3 °F /  3.5 °C 29.82 in /  1009.7 hPa WSW 12.7 mph /  20.4 km/h 8.5 mph /  13.7 km/h 16 % 0.00 in /  0 mm
17:00 90.7 °F /  32.6 °C 39.9 °F /  4.4 °C 29.82 in /  1009.7 hPa WNW 11.5 mph /  18.5 km/h 5.5 mph /  8.9 km/h 17 % 0.00 in /  0 mm
19:04 90.9 °F /  32.7 °C 38.5 °F /  3.6 °C 29.79 in /  1008.7 hPa NW 6.0 mph /  9.7 km/h 5.3 mph /  8.5 km/h 16 % 0.00 in /  0 mm
19:05 90.9 °F /  32.7 °C 38.5 °F /  3.6 °C 29.79 in /  1008.7 hPa NW 8.1 mph /  13 km/h 6.8 mph /  10.9 km/h 16 % 0.00 in /  0 mm
19:20 90.9 °F /  32.7 °C 38.5 °F /  3.6 °C 29.79 in /  1008.7 hPa NNW 5.0 mph /  8 km/h 10.0 mph /  16.1 km/h 16 % 0.00 in /  0 mm
19:25 90.9 °F /  32.7 °C 40.1 °F /  4.5 °C 29.79 in /  1008.7 hPa NW 7.0 mph /  11.3 km/h 14.0 mph /  22.5 km/h 17 % 0.00 in /  0 mm
19:30 90.8 °F /  32.7 °C 39.9 °F /  4.4 °C 29.79 in /  1008.7 hPa WNW 9.0 mph /  14.5 km/h 12.0 mph /  19.3 km/h 17 % 0.00 in /  0 mm
19:35 90.5 °F /  32.5 °C 39.8 °F /  4.3 °C 29.79 in /  1008.7 hPa WNW 6.0 mph /  9.7 km/h 12.0 mph /  19.3 km/h 17 % 0.00 in /  0 mm
19:40 89.9 °F /  32.2 °C 39.3 °F /  4.1 °C 29.79 in /  1008.7 hPa WNW 7.0 mph /  11.3 km/h 10.0 mph /  16.1 km/h 17 % 0.00 in /  0 mm
19:45 89.3 °F /  31.8 °C 38.8 °F /  3.8 °C 29.80 in /  1009 hPa NW 7.0 mph /  11.3 km/h 9.0 mph /  14.5 km/h 17 % 0.00 in /  0 mm
19:50 89.2 °F /  31.8 °C 40.1 °F /  4.5 °C 29.80 in /  1009 hPa NW 7.0 mph /  11.3 km/h 12.0 mph /  19.3 km/h 18 % 0.00 in /  0 mm
19:55 89.1 °F /  31.7 °C 40.0 °F /  4.4 °C 29.80 in /  1009 hPa NW 6.0 mph /  9.7 km/h 10.0 mph /  16.1 km/h 18 % 0.00 in /  0 mm
20:00 89.0 °F /  31.7 °C 40.0 °F /  4.4 °C 29.80 in /  1009 hPa NW 6.0 mph /  9.7 km/h 12.0 mph /  19.3 km/h 18 % 0.00 in /  0 mm
20:05 89.0 °F /  31.7 °C 40.0 °F /  4.4 °C 29.80 in /  1009 hPa NW 3.0 mph /  4.8 km/h 8.0 mph /  12.9 km/h 18 % 0.00 in /  0 mm
20:10 89.1 °F /  31.7 °C 40.1 °F /  4.5 °C 29.80 in /  1009 hPa NW 3.0 mph /  4.8 km/h 6.0 mph /  9.7 km/h 18 % 0.00 in /  0 mm
20:15 89.2 °F /  31.8 °C 40.2 °F /  4.6 °C 29.80 in /  1009 hPa WNW 2.0 mph /  3.2 km/h 5.0 mph /  8 km/h 18 % 0.00 in /  0 mm
20:20 89.3 °F /  31.8 °C 40.2 °F /  4.6 °C 29.80 in /  1009 hPa NW 3.0 mph /  4.8 km/h 5.0 mph /  8 km/h 18 % 0.00 in /  0 mm
20:25 89.2 °F /  31.8 °C 40.1 °F /  4.5 °C 29.80 in /  1009 hPa NW 3.0 mph /  4.8 km/h 5.0 mph /  8 km/h 18 % 0.00 in /  0 mm
20:30 89.0 °F /  31.7 °C 39.9 °F /  4.4 °C 29.80 in /  1009 hPa NW 1.0 mph /  1.6 km/h 4.0 mph /  6.4 km/h 18 % 0.00 in /  0 mm
20:35 88.7 °F /  31.5 °C 41.1 °F /  5.1 °C 29.80 in /  1009 hPa NW 1.0 mph /  1.6 km/h 3.0 mph /  4.8 km/h 19 % 0.00 in /  0 mm
20:40 88.3 °F /  31.3 °C 40.8 °F /  4.9 °C 29.80 in /  1009 hPa Calm   3.0 mph /  4.8 km/h 19 % 0.00 in /  0 mm
20:45 87.8 °F /  31 °C 41.8 °F /  5.4 °C 29.80 in /  1009 hPa Calm   3.0 mph /  4.8 km/h 20 % 0.00 in /  0 mm
20:50 87.4 °F /  30.8 °C 41.4 °F /  5.2 °C 29.80 in /  1009 hPa Calm   1.0 mph /  1.6 km/h 20 % 0.00 in /  0 mm
20:55 86.7 °F /  30.4 °C 43.3 °F /  6.3 °C 29.81 in /  1009.4 hPa Calm     22 % 0.00 in /  0 mm
21:00 85.2 °F /  29.6 °C 42.0 °F /  5.6 °C 29.81 in /  1009.4 hPa Calm     22 % 0.00 in /  0 mm
21:05 83.8 °F /  28.8 °C 43.2 °F /  6.2 °C 29.81 in /  1009.4 hPa Calm     24 % 0.00 in /  0 mm
21:10 82.4 °F /  28 °C 43.1 °F /  6.2 °C 29.80 in /  1009 hPa Calm     25 % 0.00 in /  0 mm
21:15 81.5 °F /  27.5 °C 44.3 °F /  6.8 °C 29.81 in /  1009.4 hPa Calm     27 % 0.00 in /  0 mm
21:20 80.0 °F /  26.7 °C 44.9 °F /  7.2 °C 29.81 in /  1009.4 hPa NW 2.0 mph /  3.2 km/h 3.0 mph /  4.8 km/h 29 % 0.00 in /  0 mm
21:25 79.3 °F /  26.3 °C 44.3 °F /  6.8 °C 29.81 in /  1009.4 hPa Calm   2.0 mph /  3.2 km/h 29 % 0.00 in /  0 mm
21:30 78.9 °F /  26.1 °C 45.7 °F /  7.6 °C 29.81 in /  1009.4 hPa Calm   2.0 mph /  3.2 km/h 31 % 0.00 in /  0 mm
21:35 77.9 °F /  25.5 °C 44.0 °F /  6.7 °C 29.81 in /  1009.4 hPa WNW 2.0 mph /  3.2 km/h 2.0 mph /  3.2 km/h 30 % 0.00 in /  0 mm
21:45 77.0 °F /  25 °C 44.9 °F /  7.2 °C 29.81 in /  1009.4 hPa Calm   2.0 mph /  3.2 km/h 32 % 0.00 in /  0 mm
21:50 76.8 °F /  24.9 °C 43.9 °F /  6.6 °C 29.82 in /  1009.7 hPa Calm   1.0 mph /  1.6 km/h 31 % 0.00 in /  0 mm
21:55 76.4 °F /  24.7 °C 45.1 °F /  7.3 °C 29.82 in /  1009.7 hPa Calm     33 % 0.00 in /  0 mm
22:00 75.6 °F /  24.2 °C 45.3 °F /  7.4 °C 29.82 in /  1009.7 hPa Calm     34 % 0.00 in /  0 mm
22:05 75.2 °F /  24 °C 46.4 °F /  8 °C 29.82 in /  1009.7 hPa Calm     36 % 0.00 in /  0 mm
22:10 74.7 °F /  23.7 °C 46.0 °F /  7.8 °C 29.82 in /  1009.7 hPa Calm     36 % 0.00 in /  0 mm
22:20 73.9 °F /  23.3 °C 45.3 °F /  7.4 °C 29.82 in /  1009.7 hPa NW 2.0 mph /  3.2 km/h 6.0 mph /  9.7 km/h 36 % 0.00 in /  0 mm
22:25 74.2 °F /  23.4 °C 43.3 °F /  6.3 °C 29.82 in /  1009.7 hPa SW 5.0 mph /  8 km/h 13.0 mph /  20.9 km/h 33 % 0.00 in /  0 mm
22:30 75.4 °F /  24.1 °C 43.4 °F /  6.3 °C 29.82 in /  1009.7 hPa SSW 3.0 mph /  4.8 km/h 9.0 mph /  14.5 km/h 32 % 0.00 in /  0 mm
22:35 75.7 °F /  24.3 °C 43.7 °F /  6.5 °C 29.82 in /  1009.7 hPa SSW 5.0 mph /  8 km/h 7.0 mph /  11.3 km/h 32 % 0.00 in /  0 mm
22:45 75.6 °F /  24.2 °C 44.5 °F /  6.9 °C 29.82 in /  1009.7 hPa SSW 5.0 mph /  8 km/h 9.0 mph /  14.5 km/h 33 % 0.00 in /  0 mm
22:50 75.5 °F /  24.2 °C 44.4 °F /  6.9 °C 29.82 in /  1009.7 hPa SSW 1.0 mph /  1.6 km/h 4.0 mph /  6.4 km/h 33 % 0.00 in /  0 mm
22:55 75.1 °F /  23.9 °C 44.0 °F /  6.7 °C 29.82 in /  1009.7 hPa SSW 1.0 mph /  1.6 km/h 2.0 mph /  3.2 km/h 33 % 0.00 in /  0 mm
23:04 74.2 °F /  23.4 °C 44.0 °F /  6.7 °C 29.82 in /  1009.7 hPa SSW 3.0 mph /  4.8 km/h 1.7 mph /  2.7 km/h 34 % 0.00 in /  0 mm
23:09 73.8 °F /  23.2 °C 44.4 °F /  6.9 °C 29.82 in /  1009.7 hPa SSW 3.5 mph /  5.6 km/h 1.3 mph /  2.1 km/h 35 % 0.00 in /  0 mm
23:14 73.4 °F /  23 °C 44.1 °F /  6.7 °C 29.82 in /  1009.7 hPa SSW 2.3 mph /  3.7 km/h 1.2 mph /  1.9 km/h 35 % 0.00 in /  0 mm
23:19 72.9 °F /  22.7 °C 44.4 °F /  6.9 °C 29.82 in /  1009.7 hPa SSW 2.3 mph /  3.7 km/h 1.9 mph /  3.1 km/h 36 % 0.00 in /  0 mm
23:24 72.6 °F /  22.6 °C 44.1 °F /  6.7 °C 29.82 in /  1009.7 hPa SSW 1.2 mph /  1.9 km/h   36 % 0.00 in /  0 mm
23:29 72.3 °F /  22.4 °C 44.6 °F /  7 °C 29.82 in /  1009.7 hPa Calm     37 % 0.00 in /  0 mm
23:34 71.7 °F /  22.1 °C 44.7 °F /  7.1 °C 29.82 in /  1009.7 hPa Calm     38 % 0.00 in /  0 mm
23:39 70.7 °F /  21.5 °C 44.5 °F /  6.9 °C 29.82 in /  1009.7 hPa Calm     39 % 0.00 in /  0 mm
23:44 69.7 °F /  20.9 °C 45.6 °F /  7.6 °C 29.82 in /  1009.7 hPa SSW 3.5 mph /  5.6 km/h 2.8 mph /  4.5 km/h 42 % 0.00 in /  0 mm
23:49 69.6 °F /  20.9 °C 44.8 °F /  7.1 °C 29.83 in /  1010 hPa SSW 2.3 mph /  3.7 km/h 2.1 mph /  3.4 km/h 41 % 0.00 in /  0 mm
23:54 69.7 °F /  20.9 °C 44.9 °F /  7.2 °C 29.82 in /  1009.7 hPa SSW 2.3 mph /  3.7 km/h 1.4 mph /  2.3 km/h 41 % 0.00 in /  0 mm
23:59 69.7 °F /  20.9 °C 44.9 °F /  7.2 °C 29.82 in /  1009.7 hPa SSW 1.2 mph /  1.9 km/h 0.1 mph /  0.2 km/h 41 % 0.00 in /  0 mm
Ararat Weather
Compliments of Weather Underground - 2 mb
Click here to send mail.


ABOUT

Live weather data from Ararat, Victoria, Australia, 3377
Data uploaded from Cumulus every 5 minutes to Weather Underground.
This site then downloads the raw data for formatting and display.
Metric and imperial data can be displayed. Graphs and historical data available.
Includes Sun and Moon times and rain image live from BOM.

Check out Ararat Weather on Facebook, Twitter and Google +

Help support ongoing costs by checking out the ads





Follow @AraratWeather